createdAt,value
2019-03-18T00:00:02.497Z,74.40
2019-03-18T00:00:41.056Z,74.60
2019-03-18T00:01:19.568Z,75.80
2019-03-18T00:01:58.356Z,75.30
2019-03-18T00:02:36.886Z,75.80
2019-03-18T00:03:15.784Z,75.80
2019-03-18T00:03:54.692Z,76.20
2019-03-18T00:04:34.056Z,76.40
2019-03-18T00:05:13.343Z,76.50
2019-03-18T00:05:52.443Z,77.10
2019-03-18T00:06:31.720Z,77.70
2019-03-18T00:07:10.800Z,77.90
2019-03-18T00:07:49.352Z,78.50
2019-03-18T00:08:28.293Z,78.70
2019-03-18T00:09:08.703Z,78.90
2019-03-18T00:09:47.684Z,79.50
2019-03-18T00:10:26.689Z,79.70
2019-03-18T00:11:05.859Z,80.40
2019-03-18T00:11:45.225Z,80.60
2019-03-18T00:12:24.329Z,81.10
2019-03-18T00:13:03.009Z,81.40
2019-03-18T00:13:41.612Z,81.80
2019-03-18T00:14:21.073Z,82.00
2019-03-18T00:15:01.413Z,82.10
2019-03-18T00:15:39.865Z,82.50
2019-03-18T00:16:18.992Z,82.80
2019-03-18T00:16:58.225Z,82.70
2019-03-18T00:17:37.450Z,82.90
2019-03-18T00:18:16.413Z,82.80
2019-03-18T00:18:54.862Z,82.80
2019-03-18T00:19:33.577Z,82.60
2019-03-18T00:20:12.153Z,83.20
2019-03-18T00:20:51.504Z,83.40
2019-03-18T00:21:30.114Z,83.10
2019-03-18T00:22:09.088Z,83.40
2019-03-18T00:22:48.107Z,83.20
2019-03-18T00:23:27.389Z,83.30
2019-03-18T00:24:06.500Z,83.50
2019-03-18T00:24:45.725Z,83.70
2019-03-18T00:25:24.987Z,83.60
2019-03-18T00:26:03.800Z,83.60
2019-03-18T00:26:42.346Z,83.40
2019-03-18T00:27:20.858Z,83.70
2019-03-18T00:27:59.701Z,83.60
2019-03-18T00:28:39.095Z,83.70
2019-03-18T00:29:17.746Z,83.70
2019-03-18T00:29:56.955Z,83.70
2019-03-18T00:30:35.950Z,83.50
2019-03-18T00:31:15.422Z,83.30
2019-03-18T00:31:54.794Z,82.90
2019-03-18T00:32:33.348Z,81.90
2019-03-18T00:33:11.825Z,81.30
2019-03-18T00:33:50.691Z,80.70
2019-03-18T00:34:29.633Z,81.90
2019-03-18T00:35:08.734Z,86.20
2019-03-18T00:35:47.248Z,86.50
2019-03-18T00:36:26.179Z,85.70
2019-03-18T00:37:05.274Z,84.90
2019-03-18T00:37:43.798Z,85.50
2019-03-18T00:38:22.944Z,85.20
2019-03-18T00:39:01.500Z,84.20
2019-03-18T00:39:40.488Z,84.00
2019-03-18T00:40:19.795Z,84.00
2019-03-18T00:40:58.875Z,83.80
2019-03-18T00:41:37.824Z,83.80
2019-03-18T00:42:17.414Z,83.70
2019-03-18T00:42:56.688Z,83.50
2019-03-18T00:43:35.779Z,83.40
2019-03-18T00:44:14.249Z,83.10
2019-03-18T00:44:52.752Z,82.80
2019-03-18T00:45:31.875Z,82.60
2019-03-18T00:46:10.491Z,83.20
2019-03-18T00:46:49.458Z,82.20
2019-03-18T00:47:28.447Z,82.00
2019-03-18T00:48:06.985Z,81.80
2019-03-18T00:48:46.133Z,81.40
2019-03-18T00:49:24.675Z,81.30
2019-03-18T00:50:03.374Z,81.00
2019-03-18T00:50:42.773Z,81.10
2019-03-18T00:51:21.593Z,81.10
2019-03-18T00:52:00.568Z,81.10
2019-03-18T00:52:39.141Z,81.00
2019-03-18T00:53:17.635Z,81.00
2019-03-18T00:53:56.889Z,80.90
2019-03-18T00:54:35.623Z,81.00
2019-03-18T00:55:14.093Z,81.10
2019-03-18T00:55:52.610Z,80.90
2019-03-18T00:56:31.190Z,81.20
2019-03-18T00:57:10.304Z,81.50
2019-03-18T00:57:49.386Z,82.00
2019-03-18T00:58:28.584Z,82.60
2019-03-18T00:59:07.769Z,82.90
2019-03-18T00:59:46.671Z,82.70
2019-03-18T01:00:27.157Z,83.10
2019-03-18T01:01:05.661Z,83.50
2019-03-18T01:01:44.143Z,83.60
2019-03-18T01:02:22.731Z,83.80
2019-03-18T01:03:01.752Z,83.80
2019-03-18T01:03:40.988Z,83.60
2019-03-18T01:04:20.114Z,83.30
2019-03-18T01:04:59.459Z,83.30
2019-03-18T01:05:38.638Z,82.50
2019-03-18T01:06:17.732Z,83.50
2019-03-18T01:06:56.330Z,82.70
2019-03-18T01:07:34.830Z,83.10
2019-03-18T01:08:13.514Z,82.80
2019-03-18T01:08:52.596Z,82.90
2019-03-18T01:09:31.667Z,82.70
2019-03-18T01:10:11.873Z,82.30
2019-03-18T01:10:51.021Z,82.30
2019-03-18T01:11:30.581Z,82.40
2019-03-18T01:12:09.479Z,81.70
2019-03-18T01:12:48.776Z,82.20
2019-03-18T01:13:27.391Z,81.90
2019-03-18T01:14:05.963Z,81.50
2019-03-18T01:14:45.111Z,81.70
2019-03-18T01:15:28.246Z,81.80
2019-03-18T01:16:04.138Z,81.40
2019-03-18T01:16:43.079Z,81.40
2019-03-18T01:17:22.174Z,81.30
2019-03-18T01:18:01.389Z,81.00
2019-03-18T01:18:40.664Z,80.60
2019-03-18T01:19:20.103Z,80.70
2019-03-18T01:19:59.399Z,80.70
2019-03-18T01:20:38.734Z,80.40
2019-03-18T01:21:17.311Z,80.40
2019-03-18T01:21:55.789Z,80.10
2019-03-18T01:22:34.439Z,79.60
2019-03-18T01:23:13.195Z,79.10
2019-03-18T01:23:51.674Z,78.50
2019-03-18T01:24:30.113Z,78.10
2019-03-18T01:25:09.318Z,78.00
2019-03-18T01:25:47.774Z,77.60
2019-03-18T01:26:26.211Z,77.50
2019-03-18T01:27:04.794Z,77.60
2019-03-18T01:27:43.267Z,77.30
2019-03-18T01:28:22.274Z,77.20
2019-03-18T01:29:01.445Z,77.00
2019-03-18T01:29:41.058Z,76.80
2019-03-18T01:30:20.439Z,76.60
2019-03-18T01:30:59.824Z,76.40
2019-03-18T01:31:38.860Z,76.20
2019-03-18T01:32:17.977Z,76.20
2019-03-18T01:32:57.174Z,76.10
2019-03-18T01:33:35.928Z,76.00
2019-03-18T01:34:14.526Z,76.00
2019-03-18T01:34:54.028Z,75.90
2019-03-18T01:35:33.206Z,75.90
2019-03-18T01:36:11.671Z,75.80
2019-03-18T01:36:51.166Z,75.70
2019-03-18T01:37:30.650Z,75.70
2019-03-18T01:38:09.189Z,75.70
2019-03-18T01:38:47.652Z,75.80
2019-03-18T01:39:26.868Z,75.90
2019-03-18T01:40:05.559Z,76.10
2019-03-18T01:40:44.611Z,76.60
2019-03-18T01:41:23.321Z,76.10
2019-03-18T01:42:02.474Z,76.60
2019-03-18T01:42:40.966Z,76.70
2019-03-18T01:43:19.678Z,76.70
2019-03-18T01:43:58.633Z,76.70
2019-03-18T01:44:38.070Z,76.90
2019-03-18T01:45:16.573Z,77.10
2019-03-18T01:45:55.315Z,76.90
2019-03-18T01:46:34.188Z,76.90
2019-03-18T01:47:13.341Z,76.70
2019-03-18T01:47:52.318Z,76.70
2019-03-18T01:48:31.515Z,76.70
2019-03-18T01:49:10.493Z,76.80
2019-03-18T01:49:49.088Z,76.70
2019-03-18T01:50:27.643Z,76.80
2019-03-18T01:51:06.160Z,76.90
2019-03-18T01:51:45.035Z,76.80
2019-03-18T01:52:24.994Z,76.60
2019-03-18T01:53:04.077Z,76.60
2019-03-18T01:53:43.206Z,76.70
2019-03-18T01:54:22.315Z,76.80
2019-03-18T01:55:01.585Z,76.80
2019-03-18T01:55:40.769Z,76.80
2019-03-18T01:56:19.768Z,76.90
2019-03-18T01:56:58.332Z,76.80
2019-03-18T01:57:37.019Z,77.10
2019-03-18T01:58:15.772Z,76.80
2019-03-18T01:58:55.158Z,76.90
2019-03-18T01:59:34.314Z,77.00
2019-03-18T02:00:13.438Z,76.80
2019-03-18T02:00:53.150Z,76.60
2019-03-18T02:01:32.426Z,76.70
2019-03-18T02:02:11.107Z,76.70
2019-03-18T02:02:51.917Z,76.90
2019-03-18T02:03:30.043Z,76.60
2019-03-18T02:04:08.996Z,76.70
2019-03-18T02:04:47.427Z,76.70
2019-03-18T02:05:26.493Z,76.70
2019-03-18T02:06:05.791Z,76.70
2019-03-18T02:06:45.569Z,76.70
2019-03-18T02:07:24.649Z,76.40
2019-03-18T02:08:03.146Z,76.20
2019-03-18T02:08:42.176Z,76.10
2019-03-18T02:09:20.701Z,76.50
2019-03-18T02:09:59.679Z,76.40
2019-03-18T02:10:38.161Z,76.40
2019-03-18T02:11:16.970Z,76.30
2019-03-18T02:11:56.583Z,76.30
2019-03-18T02:12:35.557Z,76.30
2019-03-18T02:13:14.562Z,76.20
2019-03-18T02:13:53.515Z,76.30
2019-03-18T02:14:32.502Z,76.30
2019-03-18T02:15:11.754Z,76.10
2019-03-18T02:15:53.587Z,76.20
2019-03-18T02:16:30.271Z,76.20
2019-03-18T02:17:09.172Z,75.80
2019-03-18T02:17:48.063Z,75.90
2019-03-18T02:18:27.169Z,75.90
2019-03-18T02:19:06.204Z,75.90
2019-03-18T02:19:45.233Z,75.90
2019-03-18T02:20:27.457Z,75.80
2019-03-18T02:21:06.331Z,75.90
2019-03-18T02:21:45.429Z,75.70
2019-03-18T02:22:24.548Z,75.80
2019-03-18T02:23:03.581Z,76.10
2019-03-18T02:23:42.690Z,75.70
2019-03-18T02:24:21.477Z,76.00
2019-03-18T02:25:00.610Z,76.00
2019-03-18T02:25:39.082Z,76.20
2019-03-18T02:26:17.917Z,76.10
2019-03-18T02:26:57.485Z,76.20
2019-03-18T02:27:36.000Z,75.90
2019-03-18T02:28:14.541Z,76.40
2019-03-18T02:28:53.964Z,76.60
2019-03-18T02:29:32.480Z,76.70
2019-03-18T02:30:11.098Z,76.60
2019-03-18T02:30:50.299Z,76.40
2019-03-18T02:31:29.295Z,76.60
2019-03-18T02:32:08.046Z,76.80
2019-03-18T02:32:47.053Z,77.20
2019-03-18T02:33:26.229Z,77.20
2019-03-18T02:34:07.806Z,77.00
2019-03-18T02:34:47.104Z,77.00
2019-03-18T02:35:25.999Z,77.00
2019-03-18T02:36:05.167Z,77.10
2019-03-18T02:36:43.711Z,77.30
2019-03-18T02:37:22.208Z,77.50
2019-03-18T02:38:00.621Z,77.30
2019-03-18T02:38:39.510Z,78.20
2019-03-18T02:39:18.393Z,77.20
2019-03-18T02:39:57.692Z,77.10
2019-03-18T02:40:36.403Z,77.20
2019-03-18T02:41:15.541Z,77.10
2019-03-18T02:41:54.987Z,77.00
2019-03-18T02:42:34.001Z,76.90
2019-03-18T02:43:12.577Z,77.10
2019-03-18T02:43:51.107Z,76.90
2019-03-18T02:44:29.781Z,77.00
2019-03-18T02:45:08.861Z,76.90
2019-03-18T02:45:48.183Z,76.80
2019-03-18T02:46:27.182Z,76.80
2019-03-18T02:47:05.634Z,76.50
2019-03-18T02:47:44.241Z,76.40
2019-03-18T02:48:22.775Z,76.20
2019-03-18T02:49:01.213Z,76.20
2019-03-18T02:49:40.128Z,76.10
2019-03-18T02:50:19.105Z,75.80
2019-03-18T02:50:58.135Z,76.50
2019-03-18T02:51:37.412Z,75.50
2019-03-18T02:52:16.674Z,75.50
2019-03-18T02:52:55.430Z,75.30
2019-03-18T02:53:34.188Z,76.20
2019-03-18T02:54:13.199Z,75.50
2019-03-18T02:54:52.370Z,75.60
2019-03-18T02:55:30.863Z,76.40
2019-03-18T02:56:10.585Z,76.00
2019-03-18T02:56:49.468Z,75.80
2019-03-18T02:57:27.957Z,76.10
2019-03-18T02:58:07.115Z,76.20
2019-03-18T02:58:46.294Z,76.30
2019-03-18T02:59:24.751Z,76.50
2019-03-18T03:00:04.233Z,76.20
2019-03-18T03:00:42.710Z,76.50
2019-03-18T03:01:21.496Z,76.70
2019-03-18T03:02:00.321Z,76.50
2019-03-18T03:02:39.067Z,76.30
2019-03-18T03:03:18.074Z,77.00
2019-03-18T03:03:57.354Z,77.30
2019-03-18T03:04:35.792Z,77.00
2019-03-18T03:05:14.746Z,77.10
2019-03-18T03:05:53.225Z,77.70
2019-03-18T03:06:31.760Z,77.60
2019-03-18T03:07:10.564Z,77.00
2019-03-18T03:07:49.610Z,77.30
2019-03-18T03:08:29.014Z,77.20
2019-03-18T03:09:09.604Z,77.60
2019-03-18T03:09:48.585Z,78.20
2019-03-18T03:10:27.709Z,78.00
2019-03-18T03:11:06.980Z,77.60
2019-03-18T03:11:46.358Z,77.70
2019-03-18T03:12:25.815Z,77.50
2019-03-18T03:13:04.268Z,77.40
2019-03-18T03:13:42.890Z,77.20
2019-03-18T03:14:21.702Z,77.00
2019-03-18T03:15:01.113Z,76.40
2019-03-18T03:15:40.595Z,76.20
2019-03-18T03:16:26.617Z,75.90
2019-03-18T03:17:00.382Z,75.60
2019-03-18T03:17:39.410Z,75.30
2019-03-18T03:18:18.082Z,75.40
2019-03-18T03:18:57.275Z,75.30
2019-03-18T03:19:35.991Z,75.30
2019-03-18T03:20:14.551Z,76.10
2019-03-18T03:20:53.347Z,75.60
2019-03-18T03:21:32.153Z,75.50
2019-03-18T03:22:10.631Z,75.50
2019-03-18T03:22:49.676Z,75.60
2019-03-18T03:23:28.743Z,75.70
2019-03-18T03:24:07.244Z,75.40
2019-03-18T03:24:46.696Z,75.70
2019-03-18T03:25:25.452Z,75.00
2019-03-18T03:26:04.133Z,75.70
2019-03-18T03:26:42.631Z,75.60
2019-03-18T03:27:21.910Z,75.80
2019-03-18T03:28:00.530Z,75.80
2019-03-18T03:28:39.467Z,75.90
2019-03-18T03:29:18.649Z,76.10
2019-03-18T03:29:58.030Z,76.30
2019-03-18T03:30:37.290Z,76.60
2019-03-18T03:31:15.867Z,76.10
2019-03-18T03:31:54.767Z,76.10
2019-03-18T03:32:33.506Z,76.00
2019-03-18T03:33:12.539Z,76.00
2019-03-18T03:33:51.493Z,76.10
2019-03-18T03:34:30.289Z,76.10
2019-03-18T03:35:09.609Z,76.00
2019-03-18T03:35:48.144Z,75.60
2019-03-18T03:36:29.754Z,75.80
2019-03-18T03:37:08.402Z,75.70
2019-03-18T03:37:47.019Z,75.90
2019-03-18T03:38:25.480Z,75.80
2019-03-18T03:39:05.962Z,75.80
2019-03-18T03:39:44.456Z,75.90
2019-03-18T03:40:26.092Z,75.90
2019-03-18T03:41:04.686Z,75.90
2019-03-18T03:41:43.710Z,75.90
2019-03-18T03:42:22.729Z,75.10
2019-03-18T03:43:01.728Z,75.70
2019-03-18T03:43:40.688Z,75.80
2019-03-18T03:44:20.097Z,75.50
2019-03-18T03:44:59.616Z,75.80
2019-03-18T03:45:38.143Z,75.60
2019-03-18T03:46:17.093Z,75.80
2019-03-18T03:46:55.605Z,75.50
2019-03-18T03:47:34.495Z,75.70
2019-03-18T03:48:13.466Z,75.30
2019-03-18T03:48:52.451Z,75.40
2019-03-18T03:49:31.434Z,75.70
2019-03-18T03:50:10.185Z,75.70
2019-03-18T03:50:49.343Z,75.50
2019-03-18T03:51:28.122Z,75.70
2019-03-18T03:52:06.623Z,75.40
2019-03-18T03:52:45.701Z,75.20
2019-03-18T03:53:25.148Z,75.30
2019-03-18T03:54:04.998Z,75.20
2019-03-18T03:54:44.671Z,75.30
2019-03-18T03:55:24.723Z,75.40
2019-03-18T03:56:04.158Z,75.10
2019-03-18T03:56:43.203Z,75.20
2019-03-18T03:57:22.526Z,75.20
2019-03-18T03:58:01.498Z,75.00
2019-03-18T03:58:40.668Z,75.00
2019-03-18T03:59:19.894Z,74.80
2019-03-18T03:59:58.434Z,74.70
2019-03-18T04:00:36.917Z,74.70
2019-03-18T04:01:15.406Z,74.70
2019-03-18T04:01:54.711Z,74.60
2019-03-18T04:02:33.713Z,74.30
2019-03-18T04:03:12.674Z,74.40
2019-03-18T04:03:52.510Z,74.30
2019-03-18T04:04:31.579Z,74.30
2019-03-18T04:05:10.684Z,74.40
2019-03-18T04:05:49.179Z,74.40
2019-03-18T04:06:27.708Z,74.40
2019-03-18T04:07:06.418Z,74.30
2019-03-18T04:07:45.302Z,74.60
2019-03-18T04:08:24.527Z,74.50
2019-03-18T04:09:48.844Z,74.20
2019-03-18T04:10:27.341Z,74.70
2019-03-18T04:11:08.422Z,74.30
2019-03-18T04:11:46.368Z,74.30
2019-03-18T04:12:25.257Z,74.50
2019-03-18T04:13:04.466Z,74.50
2019-03-18T04:13:43.487Z,74.40
2019-03-18T04:14:23.046Z,74.30
2019-03-18T04:15:02.428Z,74.30
2019-03-18T04:15:40.888Z,74.50
2019-03-18T04:16:19.355Z,74.10
2019-03-18T04:17:02.254Z,74.00
2019-03-18T04:17:37.722Z,73.90
2019-03-18T04:18:16.460Z,74.00
2019-03-18T04:18:55.374Z,74.10
2019-03-18T04:19:34.322Z,73.80
2019-03-18T04:20:14.702Z,74.00
2019-03-18T04:20:53.349Z,73.90
2019-03-18T04:21:32.488Z,73.90
2019-03-18T04:22:11.546Z,73.90
2019-03-18T04:23:08.415Z,74.00
2019-03-18T04:23:47.295Z,73.70
2019-03-18T04:24:26.598Z,73.90
2019-03-18T04:25:05.125Z,73.80
2019-03-18T04:25:44.157Z,73.80
2019-03-18T04:26:23.384Z,74.30
2019-03-18T04:27:02.699Z,73.50
2019-03-18T04:27:41.139Z,73.40
2019-03-18T04:28:19.678Z,73.20
2019-03-18T04:28:58.212Z,73.40
2019-03-18T04:29:36.780Z,73.20
2019-03-18T04:30:15.789Z,73.20
2019-03-18T04:30:54.798Z,72.90
2019-03-18T04:31:33.738Z,73.20
2019-03-18T04:32:30.937Z,73.00
2019-03-18T04:33:10.672Z,72.80
2019-03-18T04:33:49.112Z,72.80
2019-03-18T04:34:27.788Z,72.70
2019-03-18T04:35:07.073Z,72.80
2019-03-18T04:35:46.224Z,72.60
2019-03-18T04:36:25.318Z,72.50
2019-03-18T04:37:04.157Z,72.30
2019-03-18T04:37:43.224Z,72.20
2019-03-18T04:38:22.704Z,72.00
2019-03-18T04:39:01.211Z,72.00
2019-03-18T04:39:39.813Z,71.80
2019-03-18T04:40:18.716Z,71.90
2019-03-18T04:40:57.807Z,71.60
2019-03-18T04:41:36.469Z,71.60
2019-03-18T04:42:15.575Z,71.50
2019-03-18T04:42:54.942Z,71.40
2019-03-18T04:43:34.008Z,71.40
2019-03-18T04:44:12.921Z,71.20
2019-03-18T04:44:51.423Z,71.20
2019-03-18T04:45:30.400Z,71.00
2019-03-18T04:46:08.900Z,70.90
2019-03-18T04:46:47.986Z,70.90
2019-03-18T04:47:27.408Z,70.70
2019-03-18T04:48:06.049Z,70.60
2019-03-18T04:48:45.025Z,70.60
2019-03-18T04:49:23.447Z,70.40
2019-03-18T04:50:01.914Z,70.50
2019-03-18T04:50:40.365Z,70.50
2019-03-18T04:51:19.074Z,70.30
2019-03-18T04:51:57.937Z,70.30
2019-03-18T04:52:37.157Z,70.20
2019-03-18T04:53:16.383Z,70.20
2019-03-18T04:53:55.485Z,70.20
2019-03-18T04:54:34.599Z,70.00
2019-03-18T04:55:14.015Z,70.00
2019-03-18T04:55:52.650Z,69.70
2019-03-18T04:56:31.114Z,69.70
2019-03-18T04:57:09.890Z,69.70
2019-03-18T04:57:48.722Z,69.60
2019-03-18T04:58:27.733Z,69.40
2019-03-18T04:59:06.839Z,69.40
2019-03-18T04:59:46.143Z,69.30
2019-03-18T05:00:25.305Z,69.30
2019-03-18T05:01:04.448Z,69.40
2019-03-18T05:01:43.537Z,69.30
2019-03-18T05:02:22.126Z,69.00
2019-03-18T05:03:00.627Z,69.20
2019-03-18T05:03:39.610Z,69.10
2019-03-18T05:04:18.785Z,69.10
2019-03-18T05:04:57.935Z,69.00
2019-03-18T05:05:37.151Z,69.00
2019-03-18T05:06:16.373Z,68.80
2019-03-18T05:06:55.520Z,68.90
2019-03-18T05:07:34.076Z,68.70
2019-03-18T05:08:12.925Z,69.40
2019-03-18T05:08:51.496Z,68.80
2019-03-18T05:09:30.387Z,68.70
2019-03-18T05:10:09.253Z,68.80
2019-03-18T05:10:48.550Z,69.40
2019-03-18T05:11:27.477Z,68.50
2019-03-18T05:12:24.808Z,68.60
2019-03-18T05:13:03.638Z,68.50
2019-03-18T05:13:42.800Z,68.60
2019-03-18T05:14:21.379Z,68.50
2019-03-18T05:15:00.356Z,68.60
2019-03-18T05:15:38.926Z,68.50
2019-03-18T05:16:18.151Z,68.20
2019-03-18T05:16:57.299Z,68.20
2019-03-18T05:17:36.607Z,68.30
2019-03-18T05:18:15.878Z,68.10
2019-03-18T05:18:55.090Z,68.00
2019-03-18T05:19:33.627Z,67.90
2019-03-18T05:20:12.801Z,67.70
2019-03-18T05:20:51.554Z,67.70
2019-03-18T05:21:30.673Z,67.70
2019-03-18T05:22:09.723Z,67.50
2019-03-18T05:22:48.932Z,67.60
2019-03-18T05:23:27.923Z,67.70
2019-03-18T05:24:07.415Z,67.30
2019-03-18T05:24:46.481Z,67.40
2019-03-18T05:25:25.024Z,67.50
2019-03-18T05:26:03.551Z,67.30
2019-03-18T05:26:42.704Z,67.30
2019-03-18T05:27:21.517Z,67.20
2019-03-18T05:28:00.578Z,67.10
2019-03-18T05:28:39.856Z,67.20
2019-03-18T05:29:18.984Z,68.20
2019-03-18T05:29:58.117Z,67.30
2019-03-18T05:30:36.627Z,67.30
2019-03-18T05:31:16.105Z,67.00
2019-03-18T05:31:54.557Z,67.20
2019-03-18T05:32:33.265Z,66.90
2019-03-18T05:33:12.115Z,66.90
2019-03-18T05:33:51.009Z,66.80
2019-03-18T05:34:30.234Z,66.60
2019-03-18T05:35:09.416Z,66.70
2019-03-18T05:35:48.647Z,66.70
2019-03-18T05:36:27.743Z,66.80
2019-03-18T05:37:06.770Z,66.80
2019-03-18T05:37:45.222Z,66.70
2019-03-18T05:38:23.731Z,66.90
2019-03-18T05:39:02.467Z,66.80
2019-03-18T05:39:41.484Z,66.80
2019-03-18T05:40:20.664Z,67.40
2019-03-18T05:40:59.592Z,66.50
2019-03-18T05:41:38.732Z,66.50
2019-03-18T05:42:17.195Z,66.50
2019-03-18T05:42:56.413Z,66.30
2019-03-18T05:43:34.971Z,66.40
2019-03-18T05:44:13.485Z,66.40
2019-03-18T05:44:52.457Z,66.20
2019-03-18T05:45:32.067Z,66.20
2019-03-18T05:46:11.112Z,66.20
2019-03-18T05:46:50.387Z,66.00
2019-03-18T05:47:39.208Z,66.00
2019-03-18T05:48:10.514Z,65.90
2019-03-18T05:48:49.834Z,65.90
2019-03-18T05:49:28.924Z,65.90
2019-03-18T05:50:07.743Z,65.80
2019-03-18T05:50:46.741Z,65.70
2019-03-18T05:51:25.754Z,65.70
2019-03-18T05:52:05.000Z,65.60
2019-03-18T05:52:43.464Z,65.70
2019-03-18T05:53:22.551Z,65.70
2019-03-18T05:54:01.767Z,66.50
2019-03-18T05:54:40.826Z,65.60
2019-03-18T05:55:19.653Z,65.80
2019-03-18T05:55:59.230Z,65.60
2019-03-18T05:56:38.294Z,65.70
2019-03-18T05:57:17.088Z,65.60
2019-03-18T05:57:55.616Z,65.60
2019-03-18T05:58:34.679Z,65.40
2019-03-18T05:59:13.423Z,65.40
2019-03-18T05:59:54.079Z,65.40
2019-03-18T06:00:32.934Z,65.40
2019-03-18T06:01:11.522Z,65.30
2019-03-18T06:01:50.640Z,65.30
2019-03-18T06:02:29.630Z,65.30
2019-03-18T06:03:11.293Z,65.20
2019-03-18T06:03:50.509Z,65.10
2019-03-18T06:04:31.100Z,65.30
2019-03-18T06:05:10.324Z,65.20
2019-03-18T06:05:49.538Z,65.30
2019-03-18T06:06:29.095Z,65.30
2019-03-18T06:07:08.461Z,65.30
2019-03-18T06:07:47.771Z,65.20
2019-03-18T06:08:26.239Z,65.30
2019-03-18T06:09:05.456Z,65.30
2019-03-18T06:09:44.231Z,65.30
2019-03-18T06:10:23.256Z,65.20
2019-03-18T06:11:02.797Z,65.10
2019-03-18T06:11:41.323Z,65.20
2019-03-18T06:12:21.069Z,65.10
2019-03-18T06:13:00.247Z,64.90
2019-03-18T06:13:38.773Z,64.90
2019-03-18T06:14:17.761Z,64.90
2019-03-18T06:14:56.956Z,64.90
2019-03-18T06:15:35.439Z,64.90
2019-03-18T06:16:14.251Z,64.90
2019-03-18T06:16:53.303Z,65.00
2019-03-18T06:17:32.432Z,64.90
2019-03-18T06:18:11.626Z,65.00
2019-03-18T06:18:50.862Z,65.10
2019-03-18T06:19:30.177Z,65.00
2019-03-18T06:20:09.473Z,65.20
2019-03-18T06:20:47.920Z,65.10
2019-03-18T06:21:26.509Z,65.10
2019-03-18T06:22:05.419Z,65.20
2019-03-18T06:22:44.279Z,65.10
2019-03-18T06:23:23.583Z,65.10
2019-03-18T06:24:02.912Z,65.20
2019-03-18T06:24:42.295Z,65.20
2019-03-18T06:25:21.314Z,65.20
2019-03-18T06:26:00.251Z,65.20
2019-03-18T06:26:39.407Z,65.30
2019-03-18T06:27:18.264Z,65.30
2019-03-18T06:27:59.374Z,65.10
2019-03-18T06:28:37.881Z,65.10
2019-03-18T06:29:16.382Z,65.00
2019-03-18T06:29:55.407Z,64.80
2019-03-18T06:30:34.454Z,64.90
2019-03-18T06:31:13.451Z,64.80
2019-03-18T06:31:52.784Z,64.90
2019-03-18T06:32:32.311Z,65.00
2019-03-18T06:33:17.178Z,65.00
2019-03-18T06:33:56.226Z,64.90
2019-03-18T06:34:46.155Z,64.90
2019-03-18T06:35:25.449Z,65.00
2019-03-18T06:36:22.616Z,65.00
2019-03-18T06:37:01.875Z,64.70
2019-03-18T06:37:41.445Z,64.90
2019-03-18T06:38:20.501Z,64.80
2019-03-18T06:38:59.030Z,64.90
2019-03-18T06:39:37.651Z,64.90
2019-03-18T06:40:16.376Z,64.90
2019-03-18T06:40:55.477Z,65.00
2019-03-18T06:41:34.527Z,65.10
2019-03-18T06:42:13.464Z,65.10
2019-03-18T06:42:52.578Z,65.10
2019-03-18T06:43:31.974Z,65.30
2019-03-18T06:44:11.301Z,65.40
2019-03-18T06:44:50.113Z,65.50
2019-03-18T06:45:29.190Z,65.70
2019-03-18T06:46:07.732Z,65.70
2019-03-18T06:46:46.576Z,65.50
2019-03-18T06:47:25.821Z,65.50
2019-03-18T06:48:05.548Z,65.40
2019-03-18T06:48:44.931Z,65.50
2019-03-18T06:49:24.031Z,65.40
2019-03-18T06:50:03.073Z,65.40
2019-03-18T06:50:42.305Z,65.20
2019-03-18T06:51:21.460Z,66.10
2019-03-18T06:52:01.102Z,65.30
2019-03-18T06:52:39.653Z,65.40
2019-03-18T06:53:18.183Z,65.40
2019-03-18T06:53:57.670Z,65.20
2019-03-18T06:54:36.145Z,65.40
2019-03-18T06:55:14.947Z,65.60
2019-03-18T06:55:54.105Z,65.60
2019-03-18T06:56:32.616Z,65.70
2019-03-18T06:57:11.475Z,65.50
2019-03-18T06:57:49.932Z,65.30
2019-03-18T06:58:28.638Z,65.40
2019-03-18T06:59:07.375Z,65.20
2019-03-18T06:59:46.627Z,64.80
2019-03-18T07:00:25.622Z,65.10
2019-03-18T07:01:04.764Z,66.20
2019-03-18T07:01:43.906Z,65.90
2019-03-18T07:02:23.179Z,65.70
2019-03-18T07:03:01.756Z,65.30
2019-03-18T07:03:40.255Z,66.10
2019-03-18T07:04:19.062Z,65.10
2019-03-18T07:04:58.132Z,65.50
2019-03-18T07:05:36.608Z,65.50
2019-03-18T07:06:15.695Z,65.60
2019-03-18T07:06:54.750Z,65.90
2019-03-18T07:07:33.979Z,66.10
2019-03-18T07:08:13.711Z,66.30
2019-03-18T07:08:52.257Z,66.50
2019-03-18T07:09:30.719Z,66.30
2019-03-18T07:10:09.835Z,66.40
2019-03-18T07:10:49.070Z,66.40
2019-03-18T07:11:28.551Z,66.40
2019-03-18T07:12:07.049Z,66.00
2019-03-18T07:12:46.940Z,66.20
2019-03-18T07:13:25.926Z,66.20
2019-03-18T07:14:04.497Z,66.10
2019-03-18T07:14:43.213Z,66.60
2019-03-18T07:15:21.679Z,65.70
2019-03-18T07:16:00.329Z,66.40
2019-03-18T07:16:39.065Z,65.70
2019-03-18T07:17:18.219Z,64.80
2019-03-18T07:17:57.442Z,65.60
2019-03-18T07:18:36.037Z,65.30
2019-03-18T07:19:15.220Z,65.60
2019-03-18T07:19:54.831Z,65.70
2019-03-18T07:20:33.753Z,65.70
2019-03-18T07:21:14.573Z,65.40
2019-03-18T07:21:52.291Z,65.30
2019-03-18T07:22:30.938Z,65.30
2019-03-18T07:23:09.784Z,65.40
2019-03-18T07:23:48.857Z,65.40
2019-03-18T07:24:27.830Z,65.40
2019-03-18T07:25:06.718Z,65.30
2019-03-18T07:25:45.679Z,65.20
2019-03-18T07:26:24.193Z,64.90
2019-03-18T07:27:02.663Z,65.30
2019-03-18T07:27:41.153Z,65.30
2019-03-18T07:28:20.340Z,65.40
2019-03-18T07:29:00.576Z,65.30
2019-03-18T07:29:39.159Z,66.00
2019-03-18T07:30:18.135Z,65.30
2019-03-18T07:30:57.674Z,64.70
2019-03-18T07:31:36.843Z,65.00
2019-03-18T07:32:16.347Z,65.00
2019-03-18T07:32:55.361Z,65.00
2019-03-18T07:33:33.825Z,65.30
2019-03-18T07:34:12.387Z,65.40
2019-03-18T07:34:51.245Z,65.30
2019-03-18T07:35:30.577Z,65.40
2019-03-18T07:36:09.958Z,65.40
2019-03-18T07:36:49.010Z,65.20
2019-03-18T07:37:27.763Z,65.50
2019-03-18T07:38:06.922Z,65.50
2019-03-18T07:38:45.940Z,65.60
2019-03-18T07:39:24.433Z,65.30
2019-03-18T07:40:02.909Z,65.60
2019-03-18T07:40:41.484Z,65.50
2019-03-18T07:41:20.584Z,65.30
2019-03-18T07:41:59.965Z,65.30
2019-03-18T07:42:39.267Z,65.20
2019-03-18T07:43:17.753Z,65.30
2019-03-18T07:43:56.473Z,65.20
2019-03-18T07:44:35.023Z,65.00
2019-03-18T07:45:15.745Z,65.20
2019-03-18T07:45:54.383Z,65.10
2019-03-18T07:46:32.999Z,65.20
2019-03-18T07:47:11.669Z,65.50
2019-03-18T07:47:51.116Z,65.30
2019-03-18T07:48:31.479Z,65.30
2019-03-18T07:49:10.601Z,66.30
2019-03-18T07:49:50.113Z,65.30
2019-03-18T07:50:29.198Z,65.10
2019-03-18T07:51:08.248Z,65.00
2019-03-18T07:51:47.612Z,65.00
2019-03-18T07:52:26.113Z,65.20
2019-03-18T07:53:05.176Z,65.10
2019-03-18T07:53:43.628Z,64.80
2019-03-18T07:54:32.306Z,65.10
2019-03-18T07:55:02.540Z,65.10
2019-03-18T07:55:41.338Z,65.10
2019-03-18T07:56:20.564Z,64.70
2019-03-18T07:56:59.849Z,64.70
2019-03-18T07:57:38.891Z,64.70
2019-03-18T07:58:17.696Z,64.80
2019-03-18T07:58:56.245Z,65.00
2019-03-18T07:59:34.697Z,64.70
2019-03-18T08:00:13.899Z,65.00
2019-03-18T08:00:53.006Z,64.70
2019-03-18T08:01:32.490Z,65.00
2019-03-18T08:02:11.650Z,64.80
2019-03-18T08:02:50.359Z,64.90
2019-03-18T08:03:29.894Z,64.60
2019-03-18T08:04:08.357Z,65.00
2019-03-18T08:04:46.796Z,65.10
2019-03-18T08:05:25.312Z,65.10
2019-03-18T08:06:03.908Z,64.90
2019-03-18T08:06:42.844Z,64.80
2019-03-18T08:07:22.384Z,64.90
2019-03-18T08:08:01.858Z,64.90
2019-03-18T08:08:40.952Z,64.60
2019-03-18T08:09:20.245Z,64.60
2019-03-18T08:09:59.222Z,64.60
2019-03-18T08:10:38.244Z,64.60
2019-03-18T08:11:16.732Z,64.60
2019-03-18T08:11:55.192Z,64.70
2019-03-18T08:12:33.661Z,64.60
2019-03-18T08:13:12.665Z,64.80
2019-03-18T08:13:51.985Z,63.90
2019-03-18T08:14:31.217Z,64.60
2019-03-18T08:15:10.557Z,64.60
2019-03-18T08:15:49.709Z,64.50
2019-03-18T08:16:29.797Z,64.70
2019-03-18T08:17:10.256Z,64.80
2019-03-18T08:17:49.779Z,64.80
2019-03-18T08:18:29.110Z,64.50
2019-03-18T08:19:07.876Z,64.50
2019-03-18T08:19:47.003Z,64.60
2019-03-18T08:20:26.497Z,64.70
2019-03-18T08:21:05.137Z,64.50
2019-03-18T08:21:48.317Z,64.50
2019-03-18T08:22:28.031Z,64.50
2019-03-18T08:23:06.632Z,64.60
2019-03-18T08:23:45.781Z,64.40
2019-03-18T08:24:24.473Z,64.50